createdAt,value
2023-04-25T05:09:18.759Z,101408.66
2023-04-25T06:56:27.545Z,101506.63
2023-04-25T06:58:54.424Z,101513.69
2023-04-25T07:01:21.159Z,101510.97
2023-04-25T07:03:55.497Z,101518.91
2023-04-25T07:06:26.971Z,101517.06
2023-04-25T07:08:57.086Z,101524.16
2023-04-25T07:11:23.867Z,101526.78
2023-04-25T07:13:50.572Z,101530.31
2023-04-25T07:16:17.528Z,101529.34
2023-04-25T07:18:44.215Z,101526.63
2023-04-25T07:21:13.123Z,101535.47
2023-04-25T07:23:41.782Z,101538.97
2023-04-25T07:26:10.101Z,101542.50
2023-04-25T07:28:36.821Z,101544.28
2023-04-25T07:31:05.002Z,101548.66
2023-04-25T07:33:34.081Z,101546.81
2023-04-25T07:36:01.028Z,101552.94
2023-04-25T07:38:27.786Z,101552.91
2023-04-25T07:40:54.528Z,101554.53
2023-04-25T07:43:21.159Z,101556.22
2023-04-25T07:45:48.133Z,101562.34
2023-04-25T07:48:20.968Z,101563.13
2023-04-25T07:50:47.596Z,101558.56
2023-04-25T07:53:14.237Z,101564.72
2023-04-25T07:55:41.311Z,101566.41
2023-04-25T07:58:08.511Z,101565.38
2023-04-25T08:00:35.171Z,101566.19
2023-04-25T08:03:01.935Z,101573.19
2023-04-25T08:05:28.895Z,101586.41
2023-04-25T08:07:59.436Z,101582.75
2023-04-25T08:10:26.304Z,101583.59
2023-04-25T08:12:52.999Z,101587.03
2023-04-25T08:15:23.167Z,101584.19
2023-04-25T08:17:49.866Z,101593.00
2023-04-25T08:20:20.882Z,101595.59
2023-04-25T08:22:47.321Z,101602.63
2023-04-25T08:25:13.800Z,101611.44
2023-04-25T08:27:40.740Z,101623.81
2023-04-25T08:30:09.679Z,101629.97
2023-04-25T08:32:39.089Z,101628.06
2023-04-25T08:35:06.667Z,101627.09
2023-04-25T08:37:37.242Z,101634.16
2023-04-25T08:40:12.348Z,101634.06
2023-04-25T08:42:39.315Z,101633.16
2023-04-25T08:45:08.630Z,101640.19
2023-04-25T08:47:38.141Z,101631.25
2023-04-25T08:50:06.478Z,101634.78
2023-04-25T08:52:46.023Z,101633.91
2023-04-25T08:55:18.669Z,101649.97
2023-04-25T08:57:46.230Z,101650.88
2023-04-25T09:00:17.303Z,101657.06
2023-04-25T09:02:48.143Z,101657.97
2023-04-25T09:05:20.151Z,101672.22
2023-04-25T09:07:50.815Z,101664.09
2023-04-25T09:10:20.150Z,101668.56
2023-04-25T09:13:03.168Z,101672.94
2023-04-25T09:15:29.889Z,101670.22
2023-04-25T09:18:05.901Z,101669.25
2023-04-25T09:20:40.388Z,101666.44
2023-04-25T09:23:22.138Z,101671.69
2023-04-25T09:25:52.374Z,101671.59
2023-04-25T09:28:28.516Z,101675.91
2023-04-25T09:30:58.564Z,101688.34
2023-04-25T09:33:33.296Z,101688.25
2023-04-25T09:36:09.542Z,101692.63
2023-04-25T09:38:54.602Z,101686.31
2023-04-25T09:41:25.767Z,101692.38
2023-04-25T09:43:56.705Z,101695.84
2023-04-25T09:46:25.870Z,101707.34
2023-04-25T09:48:55.008Z,101709.00
2023-04-25T09:51:29.202Z,101721.38
2023-04-25T09:53:56.125Z,101726.63
2023-04-25T09:56:23.546Z,101721.22
2023-04-25T09:58:55.194Z,101730.03
2023-04-25T10:01:24.078Z,101735.34
2023-04-25T10:03:52.174Z,101749.53
2023-04-25T10:06:25.448Z,101741.50
2023-04-25T10:08:54.808Z,101739.66
2023-04-25T10:11:26.006Z,101742.28
2023-04-25T10:17:36.604Z,101738.47
2023-04-25T10:20:16.790Z,101740.22
2023-04-25T10:29:01.763Z,101729.25
2023-04-25T10:31:32.805Z,101735.41
2023-04-25T10:34:04.359Z,101736.19
2023-04-25T10:40:25.699Z,101730.34
2023-04-25T10:42:58.262Z,101731.09
2023-04-25T10:45:25.168Z,101737.19
2023-04-25T10:47:53.070Z,101735.25
2023-04-25T10:50:19.675Z,101724.41
2023-04-25T10:52:47.772Z,101735.16
2023-04-25T10:55:16.991Z,101735.16
2023-04-25T10:57:47.276Z,101729.63
2023-04-25T11:00:16.572Z,101743.78
2023-04-25T11:02:44.067Z,101733.75
2023-04-25T11:05:12.571Z,101734.47
2023-04-25T11:10:34.109Z,101737.88
2023-04-25T11:13:03.181Z,101751.31
2023-04-25T11:15:43.650Z,101769.25
2023-04-25T11:18:20.662Z,101766.41
2023-04-25T11:20:49.398Z,101770.75
2023-04-25T11:23:20.454Z,101767.88
2023-04-25T11:25:50.604Z,101781.31
2023-04-25T11:28:46.082Z,101779.41
2023-04-25T11:31:18.144Z,101782.00
2023-04-25T11:33:47.906Z,101779.25
2023-04-25T11:36:17.153Z,101780.03
2023-04-25T11:38:47.473Z,101788.94
2023-04-25T11:41:18.236Z,101782.69
2023-04-25T11:43:46.413Z,101783.44
2023-04-25T11:46:21.646Z,101792.41
2023-04-25T11:48:49.382Z,101789.63
2023-04-25T11:51:28.861Z,101792.31
2023-04-25T11:57:02.659Z,101796.66
2023-04-25T11:59:29.389Z,101786.94
2023-04-25T12:02:02.054Z,101784.13
2023-04-25T12:04:32.503Z,101777.84
2023-04-25T12:07:08.276Z,101779.53
2023-04-25T12:09:35.066Z,101782.09
2023-04-25T12:12:15.679Z,101784.72
2023-04-25T12:15:02.702Z,101790.09
2023-04-25T12:17:38.130Z,101797.19
2023-04-25T12:20:16.380Z,101799.00
2023-04-25T12:22:56.713Z,101799.13
2023-04-25T12:25:44.441Z,101804.38
2023-04-25T12:31:09.291Z,101806.16
2023-04-25T12:33:52.630Z,101810.66
2023-04-25T12:36:29.147Z,101817.78
2023-04-25T12:39:35.727Z,101808.72
2023-04-25T12:42:04.272Z,101809.56
2023-04-25T12:44:32.693Z,101814.00
2023-04-25T12:47:03.400Z,101813.97
2023-04-25T12:49:34.391Z,101810.25
2023-04-25T12:52:22.109Z,101810.16
2023-04-25T12:54:52.548Z,101807.38
2023-04-25T12:57:21.832Z,101806.25
2023-04-25T13:00:11.141Z,101800.72
2023-04-25T13:03:07.527Z,101795.91
2023-04-25T13:05:33.291Z,101802.81
2023-04-25T13:08:02.365Z,101800.84
2023-04-25T13:14:08.733Z,101808.66
2023-04-25T13:16:45.316Z,101810.41
2023-04-25T13:23:09.827Z,101818.41
2023-04-25T13:28:16.346Z,101822.91
2023-04-25T13:30:49.650Z,101817.41
2023-04-25T13:33:33.213Z,101818.16
2023-04-25T13:36:58.323Z,101828.78
2023-04-25T13:42:11.661Z,101817.84
2023-04-25T13:45:33.284Z,101817.75
2023-04-25T13:47:35.202Z,101824.88
2023-04-25T13:50:13.735Z,101825.75
2023-04-25T13:53:05.168Z,101823.91
2023-04-25T13:55:41.872Z,101823.91
2023-04-25T13:58:43.438Z,101831.13
2023-04-25T14:05:19.334Z,101828.47
2023-04-25T14:08:35.621Z,101835.63
2023-04-25T14:13:35.641Z,101840.06
2023-04-25T14:22:36.723Z,101839.09
2023-04-25T14:25:39.161Z,101831.91
2023-04-25T14:28:52.804Z,101845.44
2023-04-25T14:31:23.730Z,101844.69
2023-04-25T14:33:59.755Z,101836.72
2023-04-25T14:36:49.170Z,101828.72
2023-04-25T15:31:10.628Z,101879.22
2023-04-25T15:33:37.478Z,101884.53
2023-04-25T15:36:04.516Z,101888.94
2023-04-25T15:38:31.436Z,101885.31
2023-04-25T15:41:04.910Z,101879.88
2023-04-25T15:43:40.397Z,101887.06
2023-04-25T15:46:07.189Z,101886.16
2023-04-25T15:48:51.382Z,101902.34
2023-04-25T21:06:49.108Z,102073.28
2023-04-25T21:09:18.933Z,102071.56
2023-04-25T21:11:56.728Z,102080.56
2023-04-25T21:14:27.536Z,102064.56
2023-04-25T21:16:55.635Z,102069.13
2023-04-25T21:19:23.651Z,102066.50
2023-04-25T21:22:09.245Z,102065.69
2023-04-25T21:24:37.871Z,102064.84
2023-04-25T21:27:10.630Z,102060.44
2023-04-25T21:29:38.520Z,102066.75
2023-04-25T21:32:30.164Z,102062.34
2023-04-25T21:35:09.956Z,102068.69
2023-04-25T21:40:37.658Z,102062.56
2023-04-25T21:43:19.005Z,102073.31
2023-04-25T21:46:37.339Z,102074.28
2023-04-25T21:48:38.105Z,102072.53
2023-04-25T21:52:09.606Z,102077.97
2023-04-25T21:54:21.976Z,102084.28
2023-04-25T21:57:07.352Z,102080.72
2023-04-25T21:59:45.142Z,102077.28
2023-04-25T22:02:42.510Z,102084.44
2023-04-25T22:05:23.921Z,102089.84
2023-04-25T22:08:10.825Z,102087.22
2023-04-25T22:13:40.051Z,102088.25
2023-04-25T22:16:17.195Z,102092.78
2023-04-25T22:18:46.567Z,102090.09
2023-04-25T22:21:43.461Z,102091.94
2023-04-25T22:24:30.575Z,102105.38
2023-04-25T22:26:56.496Z,102101.88
2023-04-25T22:29:34.324Z,102103.69
2023-04-25T22:32:03.367Z,102104.63
2023-04-25T22:34:37.627Z,102102.91
2023-04-25T22:37:12.879Z,102114.56
2023-04-25T22:39:42.354Z,102110.16
2023-04-25T22:42:12.960Z,102112.88
2023-04-25T22:44:43.715Z,102117.34
2023-04-25T22:47:27.081Z,102110.28
2023-04-25T22:50:00.387Z,102114.78
2023-04-25T22:52:48.529Z,102124.66
2023-04-25T22:55:39.877Z,102115.78
2023-04-25T22:58:11.791Z,102118.50
2023-04-25T23:00:38.680Z,102120.34
2023-04-25T23:03:13.366Z,102117.69
2023-04-25T23:05:40.103Z,102117.75
2023-04-25T23:08:08.750Z,102113.34
2023-04-25T23:10:37.830Z,102127.59
2023-04-25T23:13:06.697Z,102120.53
2023-04-25T23:15:33.338Z,102127.69
2023-04-25T23:18:00.094Z,102126.84
2023-04-25T23:20:27.202Z,102122.41
2023-04-25T23:22:56.476Z,102125.19
2023-04-25T23:25:31.235Z,102130.53
2023-04-25T23:28:03.595Z,102126.13
2023-04-25T23:30:30.404Z,102132.41
2023-04-25T23:32:58.179Z,102128.84
2023-04-25T23:35:29.175Z,102130.63
2023-04-25T23:37:57.547Z,102127.06
2023-04-25T23:40:31.193Z,102126.22
2023-04-25T23:43:14.859Z,102125.38
2023-04-25T23:45:46.356Z,102126.31
2023-04-25T23:48:18.720Z,102116.53
2023-04-25T23:50:50.188Z,102114.78
2023-04-25T23:53:29.458Z,102108.56
2023-04-25T23:56:05.647Z,102113.03
2023-04-25T23:58:34.741Z,102121.06
